M I D A S
Marine Information and Data Acquisition System
Tripno 2281 of the Zeeleeuw from 2012-03-27 06:35:23 to 2012-03-27 13:54:23
Back to CruiseResearch ActivitiesStationsMapUnderway DataData graphs

EquipmentUnitsComment
TimeDGPSUTC
LatitudeDGPSDM.mWGS84
LongitudeDGPSDM.mWGS84
TemperatureSBE03/SBE38deg celciusITS90
ConductivitySBE21S/mITS90
SalinitySBE21 Practical Salinity Units
ChlorophylAChelsea fluorimeterg/lCalibrated in Aceton
Missing or incorrect values are displayed as -999
Sea surface data collected by the RV Zeeleeuw from 2012-03-27 06:24:12 to 2012-03-27 14:08:26
Time Latitude Longitude Temperature Conductivity Salinity ChlorophylA
2012-03-27 06:25:16 51°13.635 2°56.018 14.9887 1.98884 13.875379 -2.458615
2012-03-27 06:26:17 51°13.635 2°56.017 14.9928 1.98884 13.875646 -2.458615
2012-03-27 06:27:17 51°13.636 2°56.017 14.9922 1.98884 13.875914 -2.458615
2012-03-27 06:28:16 51°13.636 2°56.017 14.9992 1.98884 13.875914 -2.458615
2012-03-27 06:29:16 51°13.636 2°56.018 14.9988 1.988737 13.875396 -2.458615
2012-03-27 06:30:17 51°13.637 2°56.018 14.9998 1.988737 13.875663 -2.458615
2012-03-27 06:31:15 51°13.634 2°56.019 15.0202 1.988737 13.876198 -2.458615
2012-03-27 06:32:16 51°13.635 2°56.019 15.0077 1.988737 13.876466 -2.458615
2012-03-27 06:33:17 51°13.636 2°56.018 15.0252 1.988634 13.875948 -2.458615
2012-03-27 06:34:16 51°13.635 2°56.019 14.9109 1.990182 13.889064 -2.458615
2012-03-27 06:35:16 51°13.635 2°56.019 14.9701 1.990285 13.890385 -2.458615
2012-03-27 06:36:16 51°13.635 2°56.019 14.9818 1.990285 13.890652 -2.458615
2012-03-27 06:37:16 51°13.635 2°56.019 15.0041 1.990285 13.89092 -2.458615
2012-03-27 06:38:16 51°13.634 2°56.019 15.021 1.990492 13.893294 -2.458615
2012-03-27 06:39:16 51°13.641 2°55.985 15.0446 1.991111 13.898275 -2.458615
2012-03-27 06:40:16 51°13.662 2°55.893 15.0231 1.991318 13.900918 -2.458615
2012-03-27 06:41:16 51°13.707 2°55.786 15.0652 1.99173 13.904864 -2.458615
2012-03-27 06:42:16 51°13.771 2°55.69 15.0956 1.991524 13.903293 -2.458615
2012-03-27 06:43:16 51°13.849 2°55.625 15.0361 1.991421 13.903311 -2.458615
2012-03-27 06:44:16 51°13.933 2°55.627 15.059 1.991421 13.903848 -2.458615
2012-03-27 06:45:16 51°13.977 2°55.66 15.0488 1.991421 13.904116 -2.458615
2012-03-27 06:46:16 51°13.984 2°55.636 14.7549 1.989873 13.891795 -2.458615
2012-03-27 06:47:16 51°14.032 2°55.54 14.7293 1.992453 13.911973 -2.458615
2012-03-27 06:48:16 51°14.139 2°55.42 14.7209 1.991111 13.901223 -2.458615
2012-03-27 06:49:16 51°14.274 2°55.284 14.6526 1.990802 13.898866 -2.458615
2012-03-27 06:50:16 51°14.421 2°55.143 14.6457 1.993072 13.918029 -2.458615
2012-03-27 06:51:15 51°14.568 2°54.983 14.6429 1.987602 13.874247 -2.458615
2012-03-27 06:52:13 51°14.708 2°54.774 14.5071 1.990492 13.898117 -2.458615
2012-03-27 06:53:13 51°14.877 2°54.586 14.5966 1.998026 13.957368 -2.458615
2012-03-27 06:54:13 51°15.054 2°54.419 14.5718 1.994724 13.930602 -2.458615
2012-03-27 06:55:13 51°15.242 2°54.302 14.6794 1.995343 13.938006 -2.458615
2012-03-27 06:56:13 51°15.438 2°54.247 14.6746 1.995033 13.935648 -2.458615
2012-03-27 06:57:13 51°15.636 2°54.214 14.6718 1.990182 13.898172 -2.458615
2012-03-27 06:58:13 51°15.832 2°54.154 14.6776 1.992763 13.921578 -2.458615
2012-03-27 06:59:13 51°16.025 2°54.17 14.7477 1.99493 13.941047 -2.458615
2012-03-27 07:00:13 51°16.159 2°54.222 14.935 1.993382 13.930865 -2.458615
2012-03-27 07:01:13 51°16.248 2°54.243 14.9292 1.994001 13.939082 -2.458615
2012-03-27 07:02:13 51°16.303 2°54.278 14.9107 1.994208 13.943617 -2.458615
2012-03-27 07:03:13 51°16.313 2°54.301 14.9426 1.992453 13.932663 -2.458615
2012-03-27 07:04:13 51°16.307 2°54.289 14.9479 1.991421 13.926947 -2.458615
2012-03-27 07:05:13 51°16.3 2°54.274 14.9189 1.990699 13.923053 -2.458615
2012-03-27 07:06:13 51°16.291 2°54.255 14.7082 1.986364 13.890002 -2.458615
2012-03-27 07:07:13 51°16.282 2°54.234 14.6619 1.98946 13.916298 -2.458615
2012-03-27 07:08:13 51°16.272 2°54.212 14.6786 1.988325 13.908984 -2.458615
2012-03-27 07:09:13 51°16.263 2°54.188 14.6832 1.988841 13.914265 -2.458615
2012-03-27 07:10:13 51°16.254 2°54.164 14.7006 1.987706 13.906144 -2.458615
2012-03-27 07:11:13 51°16.245 2°54.141 14.72 1.989254 13.919567 -2.458615
2012-03-27 07:12:13 51°16.235 2°54.116 14.7267 1.987293 13.905146 -2.458615
2012-03-27 07:13:13 51°16.226 2°54.092 14.7455 1.98688 13.903072 -2.458615
2012-03-27 07:14:13 51°16.217 2°54.067 14.7482 1.985745 13.895217 -2.458615
2012-03-27 07:15:13 51°16.208 2°54.043 14.7677 1.989667 13.927565 -2.458615
2012-03-27 07:16:13 51°16.198 2°54.018 14.7824 1.988429 13.918651 -2.458615
2012-03-27 07:17:13 51°16.183 2°53.999 14.8411 1.987603 13.914235 -2.458615
2012-03-27 07:18:13 51°16.168 2°54.039 14.8528 1.985229 13.89585 -2.458615
2012-03-27 07:19:13 51°16.236 2°54.139 14.8262 1.98461 13.890855 -2.458615
2012-03-27 07:20:13 51°16.337 2°54.291 14.847 1.985848 13.902996 -2.458615
2012-03-27 07:21:13 51°16.357 2°54.421 14.8684 1.988222 13.922733 -2.458615
2012-03-27 07:22:13 51°16.341 2°54.431 14.8925 1.987913 13.920369 -2.458615
2012-03-27 07:23:13 51°16.328 2°54.41 14.9061 1.987603 13.918544 -2.458615
2012-03-27 07:24:13 51°16.314 2°54.381 14.9282 1.987706 13.92041 -2.458615
2012-03-27 07:25:13 51°16.301 2°54.351 14.9423 1.98719 13.918356 -2.458615
2012-03-27 07:26:13 51°16.287 2°54.32 14.9611 1.985332 13.905248 -2.458615
2012-03-27 07:27:13 51°16.273 2°54.289 14.9805 1.984816 13.902384 -2.458615
2012-03-27 07:28:13 51°16.26 2°54.259 14.9911 1.985849 13.911343 -2.458615
2012-03-27 07:29:13 51°16.248 2°54.228 15.0095 1.986158 13.914516 -2.458615
2012-03-27 07:30:13 51°16.236 2°54.197 15.0023 1.984817 13.905077 -2.458615
2012-03-27 07:31:13 51°16.224 2°54.165 15.0428 1.98492 13.907212 -2.458615
2012-03-27 07:32:13 51°16.213 2°54.135 15.0292 1.984094 13.901175 -2.458615
2012-03-27 07:33:13 51°16.202 2°54.102 15.0459 1.985745 13.915136 -2.458615
2012-03-27 07:34:13 51°16.191 2°54.07 15.0578 1.983578 13.899926 -2.458615
2012-03-27 07:35:13 51°16.18 2°54.036 15.0997 1.98492 13.910715 -2.458615
2012-03-27 07:36:13 51°16.169 2°54.002 15.1172 1.984094 13.906024 -2.458615
2012-03-27 07:37:13 51°16.158 2°53.969 15.064 1.984094 13.907372 -2.458615
2012-03-27 07:38:13 51°16.147 2°53.935 15.1302 1.985539 13.920572 -2.458615
2012-03-27 07:39:13 51°16.136 2°53.9 15.1317 1.983578 13.906124 -2.458615
2012-03-27 07:40:13 51°16.11 2°53.879 15.2014 1.983888 13.909569 -2.458615
2012-03-27 07:41:13 51°16.09 2°53.909 15.1744 1.982133 13.896697 -2.458615
2012-03-27 07:42:13 51°16.118 2°53.958 15.1341 1.980792 13.886712 -2.458615
2012-03-27 07:43:13 51°16.207 2°54.091 15.1457 1.984817 13.919908 -2.458615
2012-03-27 07:44:13 51°16.295 2°54.272 15.1472 1.985126 13.922546 -2.458615
2012-03-27 07:45:13 51°16.291 2°54.39 15.2007 1.988739 13.952063 -2.458615
2012-03-27 07:46:13 51°16.28 2°54.373 15.2856 1.987087 13.939162 -2.458615
2012-03-27 07:47:16 51°16.273 2°54.34 15.2784 1.983888 13.914965 -2.458615
2012-03-27 07:48:16 51°16.264 2°54.31 15.308 1.986468 13.936319 -2.458615
2012-03-27 07:49:16 51°16.255 2°54.279 15.3264 1.985849 13.932393 -2.458615
2012-03-27 07:50:15 51°16.246 2°54.247 15.323 1.986778 13.94004 -2.458615
2012-03-27 07:51:13 51°16.237 2°54.214 15.336 1.985023 13.927429 -2.458615
2012-03-27 07:52:13 51°16.227 2°54.18 15.3181 1.983578 13.917458 -2.458615
2012-03-27 07:53:13 51°16.198 2°54.118 15.2544 1.980585 13.894565 -2.458615
2012-03-27 07:54:13 51°16.19 2°53.972 15.301 1.984507 13.928888 -2.458615
2012-03-27 07:55:13 51°16.264 2°53.821 15.3252 1.98203 13.909125 -2.458615
2012-03-27 07:56:13 51°16.372 2°53.652 15.3515 1.985746 13.939989 -2.458615
2012-03-27 07:57:13 51°16.459 2°53.591 15.4037 1.979347 13.891024 -2.458615
2012-03-27 07:58:13 51°16.56 2°53.534 15.3584 1.980276 13.897861 -2.458615
2012-03-27 07:59:13 51°16.636 2°53.501 15.443 1.984198 13.930576 -2.458615
2012-03-27 08:00:13 51°16.677 2°53.517 15.4886 1.98234 13.916357 -2.458615
2012-03-27 08:01:13 51°16.712 2°53.592 15.4842 1.979966 13.897651 -2.458615
2012-03-27 08:02:13 51°16.738 2°53.682 15.5015 1.982443 13.917147 -2.458615
2012-03-27 08:03:13 51°16.754 2°53.762 15.4282 1.983579 13.926107 -2.458615
2012-03-27 08:04:13 51°16.772 2°53.834 15.5474 1.982443 13.917958 -2.458615
2012-03-27 08:05:13 51°16.805 2°53.891 15.4657 1.981824 13.913489 -2.458615
2012-03-27 08:06:13 51°16.834 2°53.956 15.5603 1.983991 13.93116 -2.458615
2012-03-27 08:07:13 51°16.87 2°54.02 15.5392 1.982547 13.919289 -2.458615
2012-03-27 08:08:13 51°16.906 2°54.085 15.5125 1.984198 13.933011 -2.458615
2012-03-27 08:09:13 51°16.933 2°54.16 15.5126 1.97976 13.899581 -2.458615
2012-03-27 08:10:13 51°16.948 2°54.242 15.5342 1.982134 13.918021 -2.458615
2012-03-27 08:11:13 51°16.953 2°54.327 15.6298 1.983992 13.933326 -2.458615
2012-03-27 08:12:13 51°16.968 2°54.408 15.6343 1.982237 13.919622 -2.458615
2012-03-27 08:13:13 51°16.998 2°54.476 15.5732 1.978418 13.889852 -2.458615
2012-03-27 08:14:13 51°17.017 2°54.551 15.5659 1.982856 13.926257 -2.458615
2012-03-27 08:15:13 51°17.017 2°54.633 15.6063 1.980482 13.907272 -2.458615
2012-03-27 08:16:13 51°16.998 2°54.713 15.6252 1.981308 13.914134 -2.458615
2012-03-27 08:17:13 51°16.942 2°54.761 15.6876 1.980895 13.911514 -2.458615
2012-03-27 08:18:13 51°16.878 2°54.758 15.6912 1.981618 13.916774 -2.458615
2012-03-27 08:19:13 51°16.828 2°54.729 15.6828 1.981411 13.915464 -2.458615
2012-03-27 08:20:13 51°16.777 2°54.686 15.6729 1.982134 13.922349 -2.458615
2012-03-27 08:21:13 51°16.689 2°54.59 15.6214 1.982547 13.925239 -2.458615
2012-03-27 08:22:13 51°16.61 2°54.345 15.5862 1.983992 13.937658 -2.458615
2012-03-27 08:23:13 51°16.641 2°54.02 15.613 1.984508 13.942153 -2.458615
2012-03-27 08:24:13 51°16.715 2°53.69 15.7127 1.984301 13.941114 -2.458615
2012-03-27 08:25:13 51°16.781 2°53.352 15.5986 1.979863 13.907125 -2.458615
2012-03-27 08:26:13 51°16.902 2°53.078 15.7129 1.984301 13.943011 -2.458615
2012-03-27 08:27:13 51°17.032 2°52.823 15.7404 1.981205 13.918753 -2.458615
2012-03-27 08:28:13 51°17.198 2°52.64 15.7838 1.986159 13.959686 -2.458615
2012-03-27 08:29:13 51°17.382 2°52.512 15.8141 1.98265 13.931986 -2.458615
2012-03-27 08:30:13 51°17.562 2°52.369 15.8446 1.980689 13.918589 -2.458615
2012-03-27 08:31:13 51°17.738 2°52.211 15.8809 1.982856 13.93682 -2.458615
2012-03-27 08:32:13 51°17.918 2°52.065 15.911 1.98234 13.935305 -2.458615
2012-03-27 08:33:13 51°18.107 2°51.963 15.9485 1.983682 13.948573 -2.458615
2012-03-27 08:34:13 51°18.293 2°51.84 15.9679 1.980586 13.926736 -2.458615
2012-03-27 08:35:13 51°18.478 2°51.703 15.9978 1.984302 13.960111 -2.458615
2012-03-27 08:36:13 51°18.672 2°51.601 16.0439 1.983373 13.955704 -2.458615
2012-03-27 08:37:13 51°18.857 2°51.455 16.055 1.980173 13.933334 -2.458615
2012-03-27 08:38:13 51°19.042 2°51.311 16.0869 1.984095 13.968047 -2.458615
2012-03-27 08:39:13 51°19.235 2°51.204 16.1042 1.979864 13.938833 -2.458615
2012-03-27 08:40:13 51°19.427 2°51.09 16.129 1.979451 13.93974 -2.458615
2012-03-27 08:41:13 51°19.62 2°50.977 16.1597 1.980793 13.954122 -2.458615
2012-03-27 08:42:13 51°19.816 2°50.895 16.1742 1.978419 13.939971 -2.458615
2012-03-27 08:43:13 51°20.011 2°50.79 16.2006 1.978419 13.943781 -2.458615
2012-03-27 08:44:13 51°20.203 2°50.658 16.2204 1.977697 13.942584 -2.458615
2012-03-27 08:45:13 51°20.399 2°50.546 16.2401 1.977181 13.942974 -2.458615
2012-03-27 08:46:13 51°20.6 2°50.466 16.2576 1.975839 13.937016 -2.458615
2012-03-27 08:47:13 51°20.799 2°50.37 16.2682 1.970782 13.90221 -2.458615
2012-03-27 08:48:13 51°20.994 2°50.243 16.2936 1.975943 13.946259 -2.458615
2012-03-27 08:49:13 51°21.197 2°50.17 16.3152 1.974292 13.937369 -2.458615
2012-03-27 08:50:13 51°21.399 2°50.095 16.3271 1.972331 13.925821 -2.458615
2012-03-27 08:51:13 51°21.595 2°49.993 16.3433 1.971918 13.926186 -2.458615
2012-03-27 08:52:13 51°21.791 2°49.9 16.3592 1.972744 13.937454 -2.458615
2012-03-27 08:53:13 51°21.991 2°49.837 16.3747 1.971299 13.929599 -2.458615
2012-03-27 08:54:13 51°22.19 2°49.765 16.3949 1.971196 13.933171 -2.458615
2012-03-27 08:55:13 51°22.387 2°49.665 16.4028 1.971402 13.938859 -2.458615
2012-03-27 08:56:13 51°22.587 2°49.59 16.423 1.970267 13.935026 -2.458615
2012-03-27 08:57:13 51°22.785 2°49.502 16.4246 1.967274 13.914954 -2.458615
2012-03-27 08:58:13 51°22.981 2°49.415 16.439 1.969751 13.939249 -2.458615
2012-03-27 08:59:13 51°23.181 2°49.386 16.4603 1.967687 13.927973 -2.458615
2012-03-27 09:00:13 51°23.381 2°49.355 16.4733 1.963972 13.90313 -2.458615
2012-03-27 09:01:13 51°23.579 2°49.279 16.4821 1.966139 13.924231 -2.458615
2012-03-27 09:02:13 51°23.781 2°49.24 16.5059 1.966759 13.933939 -2.458615
2012-03-27 09:03:13 51°23.977 2°49.19 16.5107 1.961289 13.894434 -2.458615
2012-03-27 09:04:13 51°24.172 2°49.124 16.5264 1.964488 13.924069 -2.458615
2012-03-27 09:05:13 51°24.366 2°49.043 16.5352 1.963972 13.923642 -2.458615
2012-03-27 09:06:13 51°24.561 2°48.977 16.553 1.964798 13.934135 -2.458615
2012-03-27 09:07:13 51°24.757 2°48.909 16.5559 1.962424 13.919621 -2.458615
2012-03-27 09:08:13 51°24.956 2°48.837 16.5746 1.962941 13.92745 -2.458615
2012-03-27 09:09:13 51°25.152 2°48.734 16.5746 1.961496 13.920388 -2.458615
2012-03-27 09:10:13 51°25.349 2°48.637 16.5836 1.962734 13.934361 -2.458615
2012-03-27 09:11:13 51°25.55 2°48.572 16.5892 1.957884 13.899843 -2.458615
2012-03-27 09:12:13 51°25.746 2°48.473 16.5992 1.961702 13.933515 -2.458615
2012-03-27 09:13:13 51°25.905 2°48.427 16.622 1.962322 13.942984 -2.458615
2012-03-27 09:14:13 51°25.986 2°48.461 16.6215 1.961599 13.941515 -2.458615
2012-03-27 09:15:13 51°26.045 2°48.538 16.6188 1.958813 13.922678 -2.458615
2012-03-27 09:16:13 51°26.109 2°48.613 16.6292 1.958194 13.920628 -2.458615
2012-03-27 09:17:13 51°26.146 2°48.705 16.6337 1.960155 13.939401 -2.458615
2012-03-27 09:18:13 51°26.126 2°48.741 16.6505 1.958194 13.926403 -2.458615
2012-03-27 09:19:13 51°26.112 2°48.721 16.6507 1.957265 13.920578 -2.458615
2012-03-27 09:20:13 51°26.097 2°48.697 16.6609 1.957265 13.923054 -2.458615
2012-03-27 09:21:13 51°26.081 2°48.669 16.6658 1.956646 13.919904 -2.458615
2012-03-27 09:22:13 51°26.065 2°48.64 16.6636 1.956027 13.917028 -2.458615
2012-03-27 09:23:13 51°26.047 2°48.609 16.6733 1.955717 13.916552 -2.458615
2012-03-27 09:24:13 51°26.03 2°48.577 16.6777 1.955201 13.914476 -2.458615
2012-03-27 09:25:13 51°26.012 2°48.544 16.6778 1.954582 13.911599 -2.458615
2012-03-27 09:26:13 51°25.995 2°48.511 16.6804 1.954272 13.911123 -2.458615
2012-03-27 09:27:13 51°25.978 2°48.479 16.6859 1.953756 13.90877 -2.458615
2012-03-27 09:28:13 51°25.962 2°48.445 16.6896 1.953447 13.908294 -2.458615
2012-03-27 09:29:13 51°25.947 2°48.411 16.689 1.953241 13.907793 -2.458615
2012-03-27 09:30:13 51°25.928 2°48.386 16.6906 1.95355 13.912949 -2.458615
2012-03-27 09:31:13 51°25.928 2°48.408 16.6956 1.951693 13.899631 -2.458615
2012-03-27 09:32:13 51°25.996 2°48.435 16.6899 1.951899 13.901233 -2.458615
2012-03-27 09:33:13 51°26.108 2°48.55 16.6873 1.954789 13.926974 -2.458615
2012-03-27 09:34:13 51°26.15 2°48.697 16.6983 1.954582 13.926474 -2.458615
2012-03-27 09:35:13 51°26.13 2°48.756 16.7166 1.954892 13.931085 -2.458615
2012-03-27 09:36:13 51°26.118 2°48.726 16.7178 1.953034 13.917209 -2.458615
2012-03-27 09:37:16 51°26.103 2°48.693 16.7151 1.952209 13.911899 -2.458615
2012-03-27 09:38:15 51°26.088 2°48.66 16.7165 1.952002 13.911949 -2.458615
2012-03-27 09:39:13 51°26.072 2°48.625 16.718 1.951383 13.908242 -2.458615
2012-03-27 09:40:13 51°26.057 2°48.588 16.7223 1.95097 13.906413 -2.458615
2012-03-27 09:41:13 51°26.04 2°48.551 16.7259 1.951074 13.908868 -2.458615
2012-03-27 09:42:13 51°26.022 2°48.513 16.7295 1.949113 13.894735 -2.458615
2012-03-27 09:43:13 51°25.985 2°48.479 16.7282 1.947358 13.882206 -2.458615
2012-03-27 09:44:13 51°25.928 2°48.511 16.7335 1.945398 13.868347 -2.458615
2012-03-27 09:45:13 51°25.937 2°48.585 16.7337 1.945604 13.86995 -2.458615
2012-03-27 09:46:13 51°26.04 2°48.622 16.7186 1.944882 13.865163 -2.458615
2012-03-27 09:47:13 51°26.133 2°48.646 16.744 1.949939 13.906939 -2.458615
2012-03-27 09:48:13 51°26.167 2°48.69 16.7453 1.949216 13.901875 -2.458615
2012-03-27 09:49:13 51°26.193 2°48.737 16.7429 1.947978 13.8928 -2.458615
2012-03-27 09:50:13 51°26.236 2°48.787 16.7451 1.946636 13.882923 -2.458615
2012-03-27 09:51:13 51°26.29 2°48.838 16.7477 1.947771 13.892574 -2.458615
2012-03-27 09:52:13 51°26.333 2°48.883 16.7527 1.947771 13.893401 -2.458615
2012-03-27 09:53:13 51°26.374 2°48.91 16.7548 1.948184 13.897437 -2.458615
2012-03-27 09:54:13 51°26.421 2°48.93 16.7585 1.947255 13.890491 -2.458615
2012-03-27 09:55:13 51°26.475 2°48.937 16.7624 1.947668 13.894252 -2.458615
2012-03-27 09:56:13 51°26.535 2°48.936 16.7631 1.947049 13.889989 -2.458615
2012-03-27 09:57:13 51°26.594 2°48.925 16.7666 1.947255 13.892421 -2.458615
2012-03-27 09:58:13 51°26.652 2°48.888 16.7692 1.947152 13.89217 -2.458615
2012-03-27 09:59:13 51°26.709 2°48.821 16.7731 1.946843 13.890313 -2.458615
2012-03-27 10:00:13 51°26.758 2°48.726 16.7744 1.947255 13.894075 -2.458615
2012-03-27 10:01:13 51°26.792 2°48.618 16.7822 1.947255 13.894902 -2.458615
2012-03-27 10:02:13 51°26.812 2°48.501 16.7767 1.94643 13.889309 -2.458615
2012-03-27 10:03:13 51°26.836 2°48.39 16.7849 1.947359 13.897911 -2.458615
2012-03-27 10:04:13 51°26.866 2°48.292 16.7852 1.947565 13.900621 -2.458615
2012-03-27 10:05:13 51°26.898 2°48.201 16.7893 1.946843 13.895829 -2.458615
2012-03-27 10:06:13 51°26.931 2°48.112 16.7919 1.946327 13.892366 -2.458615
2012-03-27 10:07:13 51°26.967 2°48.029 16.793 1.946017 13.890785 -2.458615
2012-03-27 10:08:13 51°27.005 2°47.965 16.7931 1.946224 13.893219 -2.458615
2012-03-27 10:09:13 51°27.041 2°47.94 16.8007 1.945501 13.888426 -2.458615
2012-03-27 10:10:13 51°27.057 2°47.926 16.8011 1.944985 13.884963 -2.458615
2012-03-27 10:11:13 51°27.062 2°47.907 16.799 1.946224 13.895426 -2.458615
2012-03-27 10:12:13 51°27.061 2°47.889 16.8004 1.94643 13.897584 -2.458615
2012-03-27 10:13:13 51°27.055 2°47.908 16.8007 1.947256 13.905114 -2.458615
2012-03-27 10:14:13 51°26.999 2°47.93 16.8161 1.948081 13.912092 -2.458615
2012-03-27 10:15:13 51°26.882 2°47.864 16.8068 1.945811 13.894422 -2.458615
2012-03-27 10:16:13 51°26.724 2°47.763 16.8073 1.944572 13.884785 -2.458615
2012-03-27 10:17:13 51°26.541 2°47.652 16.8137 1.947153 13.905968 -2.458615
2012-03-27 10:18:13 51°26.362 2°47.467 16.821 1.946843 13.904387 -2.458615
2012-03-27 10:19:13 51°26.182 2°47.273 16.8171 1.945811 13.896354 -2.458615
2012-03-27 10:20:13 51°25.998 2°47.094 16.8236 1.946327 13.901199 -2.458615
2012-03-27 10:21:13 51°25.816 2°46.907 16.831 1.945811 13.897459 -2.458615
2012-03-27 10:22:13 51°25.629 2°46.74 16.8257 1.944985 13.891308 -2.458615
2012-03-27 10:23:13 51°25.443 2°46.568 16.8299 1.944469 13.88812 -2.458615
2012-03-27 10:24:13 51°25.261 2°46.386 16.8431 1.946224 13.902053 -2.458615
2012-03-27 10:25:13 51°25.083 2°46.195 16.8347 1.944779 13.891358 -2.458615
2012-03-27 10:26:13 51°24.902 2°46.009 16.8448 1.946224 13.903435 -2.458615
2012-03-27 10:27:13 51°24.717 2°45.834 16.8367 1.94674 13.908005 -2.458615
2012-03-27 10:28:13 51°24.537 2°45.642 16.8554 1.947049 13.911246 -2.458615
2012-03-27 10:29:13 51°24.354 2°45.459 16.8536 1.946017 13.903486 -2.458615
2012-03-27 10:30:13 51°24.173 2°45.268 16.866 1.945708 13.901904 -2.458615
2012-03-27 10:31:13 51°23.987 2°45.088 16.8615 1.945811 13.902984 -2.458615
2012-03-27 10:32:13 51°23.801 2°44.908 16.8645 1.945398 13.900599 -2.458615
2012-03-27 10:33:13 51°23.612 2°44.737 16.8658 1.946017 13.905421 -2.458615
2012-03-27 10:34:13 51°23.431 2°44.546 16.8787 1.945398 13.901152 -2.458615
2012-03-27 10:35:13 51°23.245 2°44.37 16.875 1.945501 13.902232 -2.458615
2012-03-27 10:36:13 51°23.066 2°44.171 16.8911 1.94643 13.910019 -2.458615
2012-03-27 10:37:13 51°22.878 2°43.995 16.8849 1.945192 13.900373 -2.458615
2012-03-27 10:38:13 51°22.694 2°43.804 16.8909 1.945605 13.904418 -2.458615
2012-03-27 10:39:13 51°22.512 2°43.608 16.9032 1.945192 13.901203 -2.458615
2012-03-27 10:40:13 51°22.323 2°43.431 16.8964 1.945398 13.903087 -2.458615
2012-03-27 10:41:13 51°22.134 2°43.254 16.9114 1.944573 13.897485 -2.458615
2012-03-27 10:42:13 51°21.936 2°43.123 16.9089 1.94385 13.891859 -2.458615
2012-03-27 10:43:13 51°21.736 2°42.994 16.9156 1.945398 13.904469 -2.458615
2012-03-27 10:44:13 51°21.543 2°42.838 16.9235 1.944986 13.902083 -2.458615
2012-03-27 10:45:13 51°21.349 2°42.697 16.9297 1.943747 13.89216 -2.458615
2012-03-27 10:46:13 51°21.152 2°42.572 16.9305 1.945192 13.904521 -2.458615
2012-03-27 10:47:13 51°20.956 2°42.44 16.9272 1.944882 13.902109 -2.458615
2012-03-27 10:48:13 51°20.762 2°42.3 16.9479 1.945398 13.906959 -2.458615
2012-03-27 10:49:13 51°20.561 2°42.198 16.9301 1.942096 13.880956 -2.458615
2012-03-27 10:50:13 51°20.364 2°42.098 16.9463 1.944779 13.902688 -2.458615
2012-03-27 10:51:13 51°20.168 2°41.987 16.9528 1.943644 13.893843 -2.458615
2012-03-27 10:52:13 51°19.969 2°41.922 16.9509 1.943541 13.893316 -2.458615
2012-03-27 10:53:13 51°19.768 2°41.862 16.9584 1.944366 13.900578 -2.458615
2012-03-27 10:54:13 51°19.568 2°41.775 16.9688 1.944573 13.902739 -2.458615
2012-03-27 10:55:13 51°19.367 2°41.71 16.9646 1.943438 13.893617 -2.458615
2012-03-27 10:56:13 51°19.166 2°41.633 16.9814 1.945089 13.907313 -2.458615
2012-03-27 10:57:13 51°18.963 2°41.552 16.9821 1.942715 13.888542 -2.458615
2012-03-27 10:58:13 51°18.759 2°41.498 16.9821 1.944573 13.903292 -2.458615
2012-03-27 10:59:13 51°18.556 2°41.411 16.9898 1.944779 13.905454 -2.458615
2012-03-27 11:00:13 51°18.351 2°41.338 16.9896 1.941786 13.881582 -2.458615
2012-03-27 11:01:13 51°18.146 2°41.28 16.9976 1.945295 13.909752 -2.458615
2012-03-27 11:02:13 51°17.941 2°41.197 17.0098 1.944263 13.901433 -2.458615
2012-03-27 11:03:13 51°17.736 2°41.136 17.0086 1.94385 13.89794 -2.458615
2012-03-27 11:04:13 51°17.53 2°41.066 17.0153 1.944573 13.904122 -2.458615
2012-03-27 11:05:13 51°17.326 2°40.983 17.0227 1.94385 13.898493 -2.458615
2012-03-27 11:06:13 51°17.12 2°40.928 17.0213 1.944882 13.906535 -2.458615
2012-03-27 11:07:13 51°16.915 2°40.849 17.0322 1.944882 13.906812 -2.458615
2012-03-27 11:08:13 51°16.708 2°40.779 17.0352 1.94385 13.898769 -2.458615
2012-03-27 11:09:13 51°16.5 2°40.727 17.0392 1.94416 13.901182 -2.458615
2012-03-27 11:10:13 51°16.294 2°40.648 17.0475 1.94416 13.901735 -2.458615
2012-03-27 11:11:13 51°16.09 2°40.554 17.0434 1.943128 13.893417 -2.458615
2012-03-27 11:12:13 51°15.887 2°40.464 17.0624 1.945089 13.909527 -2.458615
2012-03-27 11:13:13 51°15.68 2°40.389 17.054 1.943334 13.895302 -2.458615
2012-03-27 11:14:13 51°15.474 2°40.328 17.06 1.944676 13.906587 -2.458615
2012-03-27 11:15:13 51°15.276 2°40.218 17.0765 1.944676 13.907417 -2.458615
2012-03-27 11:16:13 51°15.079 2°40.108 17.0746 1.944573 13.906059 -2.458615
2012-03-27 11:17:13 51°14.886 2°39.984 17.079 1.944676 13.907694 -2.458615
2012-03-27 11:18:13 51°14.692 2°39.874 17.0807 1.944057 13.902591 -2.458615
2012-03-27 11:19:13 51°14.496 2°39.781 17.0924 1.944676 13.907694 -2.458615
2012-03-27 11:20:13 51°14.304 2°39.674 17.0918 1.941683 13.884093 -2.458615
2012-03-27 11:21:13 51°14.108 2°39.58 17.1066 1.943438 13.898042 -2.458615
2012-03-27 11:22:13 51°13.912 2°39.49 13.7679 1.944779 13.908498 -2.458615
2012-03-27 11:23:13 51°13.726 2°39.355 13.8995 1.945399 13.913602 -2.458615
2012-03-27 11:24:13 51°13.542 2°39.212 14.2046 1.944366 13.905004 -2.458615
2012-03-27 11:25:13 51°13.355 2°39.082 14.4786 1.941167 13.880072 -2.458615
2012-03-27 11:26:13 51°13.176 2°38.922 14.8304 1.943231 13.896433 -2.458615
2012-03-27 11:27:13 51°13.016 2°38.713 14.638 1.944367 13.905281 -2.458615
2012-03-27 11:28:13 51°12.853 2°38.51 14.4528 1.943747 13.899901 -2.458615
2012-03-27 11:29:13 51°12.681 2°38.325 14.8885 1.943747 13.900178 -2.458615
2012-03-27 11:30:13 51°12.518 2°38.12 14.6674 1.942922 13.893744 -2.458615
2012-03-27 11:31:13 51°12.344 2°37.937 15.1011 1.94416 13.903119 -2.458615
2012-03-27 11:32:13 51°12.179 2°37.74 15.1556 1.941786 13.884068 -2.458615
2012-03-27 11:33:13 51°12.008 2°37.554 14.7593 1.942509 13.889697 -2.458615
2012-03-27 11:34:13 51°11.831 2°37.374 14.838 1.942922 13.892914 -2.458615
2012-03-27 11:35:13 51°11.657 2°37.187 15.0782 1.942818 13.891834 -2.458615
2012-03-27 11:36:13 51°11.495 2°36.975 14.9511 1.943954 13.900957 -2.458615
2012-03-27 11:37:13 51°11.345 2°36.746 15.0603 1.943231 13.89505 -2.458615
2012-03-27 11:38:13 51°11.193 2°36.519 15.1641 1.944263 13.902263 -2.458615
2012-03-27 11:39:13 51°11.036 2°36.301 14.8068 1.939413 13.864194 -2.458615
2012-03-27 11:40:13 51°10.849 2°36.159 15.0881 1.941374 13.878918 -2.458615
2012-03-27 11:41:13 51°10.654 2°36.057 15.1527 1.942818 13.890728 -2.458615
2012-03-27 11:42:13 51°10.459 2°35.948 15.0559 1.943541 13.896633 -2.458615
2012-03-27 11:43:13 51°10.261 2°35.879 14.974 1.941683 13.881606 -2.458615
2012-03-27 11:44:13 51°10.071 2°35.945 15.1966 1.938794 13.858543 -2.458615
2012-03-27 11:45:13 51°9.926 2°36.116 15.4401 1.937452 13.847817 -2.458615
2012-03-27 11:46:13 51°9.798 2°36.314 15.3015 1.94158 13.880802 -2.458615
2012-03-27 11:47:13 51°9.662 2°36.504 15.1505 1.940238 13.870074 -2.458615
2012-03-27 11:48:13 51°9.543 2°36.714 15.3769 1.941167 13.876758 -2.458615
2012-03-27 11:49:13 51°9.426 2°36.927 15.5043 1.942302 13.886154 -2.458615
2012-03-27 11:50:13 51°9.299 2°37.115 15.1758 1.942612 13.888843 -2.458615
2012-03-27 11:51:13 51°9.232 2°37.233 16.2491 1.942302 13.885602 -2.458615
2012-03-27 11:52:13 51°9.212 2°37.265 16.0822 1.943747 13.896859 -2.458615
2012-03-27 11:53:13 51°9.2 2°37.253 16.143 1.942612 13.887738 -2.458615
2012-03-27 11:54:13 51°9.186 2°37.239 16.0929 1.94416 13.899799 -2.458615
2012-03-27 11:55:13 51°9.173 2°37.225 16.1627 1.944366 13.901407 -2.458615
2012-03-27 11:56:13 51°9.159 2°37.21 16.1846 1.942818 13.889069 -2.458615
2012-03-27 11:57:13 51°9.147 2°37.194 16.22 1.944366 13.901131 -2.458615
2012-03-27 11:58:13 51°9.134 2°37.178 16.1961 1.943747 13.896306 -2.458615
2012-03-27 11:59:13 51°9.121 2°37.162 16.2883 1.945089 13.907036 -2.458615
2012-03-27 12:00:13 51°9.109 2°37.146 16.274 1.943954 13.897914 -2.458615
2012-03-27 12:01:13 51°9.096 2°37.13 16.3416 1.944057 13.898995 -2.458615
2012-03-27 12:02:13 51°9.083 2°37.114 16.3636 1.943954 13.898467 -2.458615
2012-03-27 12:03:13 51°9.071 2°37.097 16.3459 1.944573 13.903845 -2.458615
2012-03-27 12:04:13 51°9.058 2°37.08 16.4243 1.94447 13.903595 -2.458615
2012-03-27 12:05:13 51°9.046 2°37.063 16.4263 1.943541 13.896633 -2.458615
2012-03-27 12:06:13 51°9.03 2°37.051 16.4415 1.943954 13.899297 -2.458615
2012-03-27 12:07:13 51°8.973 2°37.034 16.5283 1.946121 13.918956 -2.458615
2012-03-27 12:08:13 51°8.961 2°36.91 16.4759 1.94963 13.947698 -2.458615
2012-03-27 12:09:13 51°9.036 2°36.827 16.4952 1.947566 13.929664 -2.458615
2012-03-27 12:10:13 51°9.137 2°36.809 16.5368 1.944779 13.907668 -2.458615
2012-03-27 12:11:13 51°9.187 2°36.893 16.5251 1.946843 13.925418 -2.458615
2012-03-27 12:12:13 51°9.181 2°37.002 16.5432 1.942406 13.889722 -2.458615
2012-03-27 12:13:13 51°9.191 2°37.109 16.5476 1.944573 13.907997 -2.458615
2012-03-27 12:14:13 51°9.194 2°37.197 16.5698 1.944883 13.911518 -2.458615
2012-03-27 12:15:13 51°9.181 2°37.204 16.5832 1.946431 13.925249 -2.458615
2012-03-27 12:16:13 51°9.165 2°37.192 16.5984 1.944573 13.910212 -2.458615
2012-03-27 12:17:13 51°9.147 2°37.176 16.6064 1.944779 13.912098 -2.458615
2012-03-27 12:18:13 51°9.128 2°37.161 16.605 1.944676 13.912124 -2.458615
2012-03-27 12:19:13 51°9.11 2°37.145 16.6222 1.944263 13.909183 -2.458615
2012-03-27 12:20:13 51°9.093 2°37.132 16.6419 1.942922 13.898723 -2.458615
2012-03-27 12:21:13 51°9.077 2°37.123 16.6518 1.94416 13.909486 -2.458615
2012-03-27 12:22:13 51°9.064 2°37.114 16.6631 1.94416 13.91004 -2.458615
2012-03-27 12:23:13 51°9.053 2°37.109 16.676 1.943747 13.907098 -2.458615
2012-03-27 12:24:13 51°9.043 2°37.104 16.687 1.944263 13.911953 -2.458615
2012-03-27 12:25:13 51°9.033 2°37.098 16.6986 1.943747 13.908206 -2.458615
2012-03-27 12:26:13 51°9.023 2°37.092 16.7159 1.944057 13.911175 -2.458615
2012-03-27 12:27:13 51°9.027 2°37.142 16.6134 1.940548 13.883814 -2.458615
2012-03-27 12:28:13 51°9.076 2°37.143 16.681 1.940342 13.882204 -2.458615
2012-03-27 12:29:13 51°9.085 2°37.052 16.6873 1.942715 13.900436 -2.458615
2012-03-27 12:30:13 51°9.059 2°36.95 16.6992 1.943335 13.905818 -2.458615
2012-03-27 12:31:13 51°9.045 2°36.844 16.7177 1.94416 13.913642 -2.458615
2012-03-27 12:32:13 51°9.04 2°36.748 16.7361 1.944057 13.913115 -2.458615
2012-03-27 12:33:13 51°9.033 2°36.659 16.7483 1.944057 13.912837 -2.458615
2012-03-27 12:34:13 51°9.024 2°36.575 16.7648 1.944263 13.91417 -2.458615
2012-03-27 12:35:13 51°9.014 2°36.493 16.7836 1.943954 13.911478 -2.458615
2012-03-27 12:36:13 51°9 2°36.408 16.7957 1.943954 13.910924 -2.458615
2012-03-27 12:37:13 51°8.978 2°36.323 16.8095 1.94447 13.914394 -2.458615
2012-03-27 12:38:13 51°8.957 2°36.236 16.827 1.944057 13.910898 -2.458615
2012-03-27 12:39:13 51°8.937 2°36.148 16.8437 1.94416 13.911148 -2.458615
2012-03-27 12:40:13 51°8.918 2°36.06 16.8478 1.94447 13.912454 -2.458615
2012-03-27 12:41:13 51°8.903 2°35.971 16.8695 1.944367 13.911096 -2.458615
2012-03-27 12:42:13 51°8.891 2°35.883 16.8877 1.94416 13.908378 -2.458615
2012-03-27 12:43:13 51°8.882 2°35.793 16.897 1.944676 13.911847 -2.458615
2012-03-27 12:44:13 51°8.884 2°35.708 16.9124 1.945089 13.914235 -2.458615
2012-03-27 12:45:13 51°8.894 2°35.627 16.9307 1.944986 13.912322 -2.458615
2012-03-27 12:46:13 51°8.909 2°35.551 16.9399 1.94447 13.907469 -2.458615
2012-03-27 12:47:13 51°8.932 2°35.482 16.9417 1.944779 13.908775 -2.458615
2012-03-27 12:48:13 51°8.953 2°35.432 16.9719 1.94447 13.905532 -2.458615
2012-03-27 12:49:13 51°8.963 2°35.393 16.9664 1.94416 13.901735 -2.458615
2012-03-27 12:50:13 51°8.966 2°35.36 16.9924 1.945502 13.911914 -2.458615
2012-03-27 12:51:13 51°8.996 2°35.306 16.9258 1.946637 13.920484 -2.458615
2012-03-27 12:52:13 51°9.092 2°35.326 16.9217 1.947256 13.92531 -2.458615
2012-03-27 12:53:13 51°9.165 2°35.511 16.9761 1.945502 13.908869 -2.458615
2012-03-27 12:54:13 51°9.239 2°35.78 16.902 1.944676 13.90299 -2.458615
2012-03-27 12:55:13 51°9.303 2°36.076 16.9976 1.943747 13.895477 -2.458615
2012-03-27 12:56:13 51°9.386 2°36.362 16.9629 1.944573 13.902186 -2.458615
2012-03-27 12:57:13 51°9.47 2°36.65 16.9828 1.944779 13.904071 -2.458615
2012-03-27 12:58:13 51°9.55 2°36.941 16.9985 1.943954 13.898467 -2.458615
2012-03-27 12:59:13 51°9.616 2°37.244 17.0302 1.94385 13.897663 -2.458615
2012-03-27 13:00:13 51°9.683 2°37.55 17.0575 1.942612 13.888014 -2.458615
2012-03-27 13:01:13 51°9.763 2°37.846 17.0836 1.943954 13.898744 -2.458615
2012-03-27 13:02:13 51°9.843 2°38.142 17.0475 1.945914 13.9143 -2.458615
2012-03-27 13:03:13 51°9.906 2°38.445 17.104 1.944573 13.903569 -2.458615
2012-03-27 13:04:13 51°9.987 2°38.741 17.0777 1.944573 13.903292 -2.458615
2012-03-27 13:05:13 51°10.048 2°39.048 17.137 1.944676 13.90382 -2.458615
2012-03-27 13:06:13 51°10.126 2°39.344 17.0808 1.945502 13.9097 -2.458615
2012-03-27 13:07:13 51°10.197 2°39.646 17.1411 1.94416 13.898693 -2.458615
2012-03-27 13:08:13 51°10.274 2°39.943 17.1464 1.945605 13.91078 -2.458615
2012-03-27 13:09:13 51°10.333 2°40.251 17.1651 1.943644 13.894396 -2.458615
2012-03-27 13:10:13 51°10.413 2°40.548 17.1636 1.944573 13.901356 -2.458615
2012-03-27 13:11:13 51°10.487 2°40.846 17.172 1.945605 13.90995 -2.458615
2012-03-27 13:12:13 51°10.551 2°41.15 17.182 1.943025 13.888467 -2.458615
2012-03-27 13:13:13 51°10.631 2°41.446 17.1883 1.945398 13.907512 -2.458615
2012-03-27 13:14:13 51°10.689 2°41.754 17.214 1.944057 13.897059 -2.458615
2012-03-27 13:15:13 51°10.746 2°42.063 17.2268 1.944882 13.902662 -2.458615
2012-03-27 13:16:13 51°10.823 2°42.362 17.2299 1.945192 13.905074 -2.458615
2012-03-27 13:17:13 51°10.904 2°42.656 17.1812 1.945914 13.910702 -2.458615
2012-03-27 13:18:13 51°10.951 2°42.974 17.2423 1.943231 13.88897 -2.458615
2012-03-27 13:19:13 51°11.008 2°43.286 17.2701 1.943747 13.892989 -2.458615
2012-03-27 13:20:13 51°11.086 2°43.586 17.2419 1.944573 13.899144 -2.458615
2012-03-27 13:21:13 51°11.161 2°43.89 17.2353 1.945192 13.903968 -2.458615
2012-03-27 13:22:13 51°11.223 2°44.202 17.2676 1.943747 13.89216 -2.458615
2012-03-27 13:23:13 51°11.303 2°44.505 17.2759 1.944573 13.898315 -2.458615
2012-03-27 13:24:13 51°11.39 2°44.801 17.2808 1.945192 13.903138 -2.458615
2012-03-27 13:25:13 51°11.467 2°45.106 17.2691 1.945708 13.906881 -2.458615
2012-03-27 13:26:13 51°11.532 2°45.422 17.2919 1.943541 13.888895 -2.458615
2012-03-27 13:27:13 51°11.612 2°45.729 17.2746 1.945089 13.900675 -2.458615
2012-03-27 13:28:13 51°11.685 2°46.041 16.3454 1.945502 13.904167 -2.458615
2012-03-27 13:29:13 51°11.769 2°46.346 16.6008 1.94447 13.8953 -2.458615
2012-03-27 13:30:13 51°11.859 2°46.645 16.6512 1.945295 13.902559 -2.458615
2012-03-27 13:31:13 51°11.936 2°46.955 16.5092 1.945811 13.906302 -2.458615
2012-03-27 13:32:13 51°12.005 2°47.271 16.6058 1.945811 13.906025 -2.458615
2012-03-27 13:33:13 51°12.082 2°47.583 16.5815 1.945089 13.900122 -2.458615
2012-03-27 13:34:13 51°12.182 2°47.878 16.7142 1.946637 13.912733 -2.458615
2012-03-27 13:35:13 51°12.265 2°48.188 16.563 1.946843 13.914617 -2.458615
2012-03-27 13:36:13 51°12.367 2°48.482 16.7244 1.945708 13.904669 -2.458615
2012-03-27 13:37:13 51°12.477 2°48.77 16.7671 1.94416 13.892336 -2.458615
2012-03-27 13:38:13 51°12.576 2°49.07 16.6048 1.945502 13.903338 -2.458615
2012-03-27 13:39:13 51°12.68 2°49.366 16.6882 1.947462 13.91861 -2.458615
2012-03-27 13:40:13 51°12.771 2°49.675 16.6699 1.945811 13.905472 -2.458615
2012-03-27 13:41:13 51°12.872 2°49.977 16.6937 1.946017 13.907357 -2.458615
2012-03-27 13:42:13 51°12.981 2°50.273 16.7145 1.946533 13.910822 -2.458615
2012-03-27 13:43:13 51°13.077 2°50.581 16.6475 1.946637 13.912456 -2.458615
2012-03-27 13:44:13 51°13.186 2°50.877 16.7279 1.94416 13.892612 -2.458615
2012-03-27 13:45:13 51°13.306 2°51.165 16.6867 1.945605 13.904418 -2.458615
2012-03-27 13:46:13 51°13.409 2°51.467 16.666 1.946637 13.913286 -2.458615
2012-03-27 13:47:13 51°13.513 2°51.771 16.6746 1.94385 13.890754 -2.458615
2012-03-27 13:48:13 51°13.636 2°52.059 16.7324 1.946121 13.909267 -2.458615
2012-03-27 13:49:13 51°13.746 2°52.36 16.6961 1.947256 13.919771 -2.458615
2012-03-27 13:50:13 51°13.857 2°52.661 16.6887 1.945914 13.908765 -2.458615
2012-03-27 13:51:13 51°13.984 2°52.946 16.7201 1.946018 13.910676 -2.458615
2012-03-27 13:52:13 51°14.101 2°53.239 16.7033 1.946946 13.91902 -2.458615
2012-03-27 13:53:13 51°14.216 2°53.536 16.761 1.946327 13.914472 -2.458615
2012-03-27 13:54:13 51°14.339 2°53.825 16.7088 1.944573 13.902186 -2.458615
2012-03-27 13:55:13 51°14.462 2°54.116 16.7201 1.946946 13.921512 -2.458615
2012-03-27 13:56:13 51°14.571 2°54.422 16.755 1.945811 13.912942 -2.458615
2012-03-27 13:57:13 51°14.625 2°54.758 16.8427 1.948701 13.937404 -2.458615
2012-03-27 13:58:13 51°14.528 2°55.039 16.7142 1.948598 13.938264 -2.458615
2012-03-27 13:59:13 51°14.364 2°55.204 16.7132 1.944986 13.909 -2.458615
2012-03-27 14:00:16 51°14.196 2°55.351 16.6002 1.94416 13.903949 -2.458615
2012-03-27 14:01:16 51°14.058 2°55.457 16.5749 1.947463 13.930523 -2.458615
2012-03-27 14:02:16 51°13.948 2°55.536 16.5867 1.947669 13.932409 -2.458615
2012-03-27 14:03:16 51°13.855 2°55.603 16.5763 1.947772 13.933769 -2.458615
2012-03-27 14:04:16 51°13.774 2°55.677 16.6099 1.947256 13.9303 -2.458615
2012-03-27 14:05:16 51°13.715 2°55.779 16.6347 1.94705 13.928136 -2.458615
2012-03-27 14:06:16 51°13.667 2°55.885 16.6655 1.947359 13.931105 -2.458615
2012-03-27 14:07:16 51°13.642 2°55.974 16.6369 1.947153 13.929496 -2.458615
2012-03-27 14:08:16 51°13.636 2°56.015 16.6488 1.947566 13.932992 -2.458615